메인 페이지
METAR-TAF:

METAR-TAF

공항 :

Marham, 잉글랜드

위도: 52-39N, 경도: 000-34E, 고도: 23m

현재 날씨관측

예보는 23분 전, 03:20시(UTC)에 발표되었습니다.
서북서10kt
온도 11°C
습도 94%
기압 1013 hPa
시정 10km 이상
약한비,

METAR: EGYM 130320Z AUTO 30010KT 9999 -RA FEW068/// BKN098/// 11/10 Q1013

시각: 04:43 (03:43 UTC)

예보

예보는 17 시간 33분 전, 10:10시(UTC)에 발표되었습니다.
예보 대상 시간: 12일 12시부터 12일 18시까지 (UTC)
10kt
시정 10km 이상
고도 2700ft 상공 구름 보통
일시적
12일 12시부터 12일 18시까지 (UTC)
10kt, 순간 최대 풍속 23kt
고도 2000ft 상공 구름 보통
확률 30% :
일시적
12일 14시부터 12일 18시까지 (UTC)
시정: 7000m
고도 1000ft 상공 구름 보통
약한비,

TAF: EGYM 121010Z 1212/1218 36010KT 9999 SCT027 TEMPO 1212/1218 36010G23KT SCT020 PROB30 TEMPO 1214/1218 7000 -RA SCT010

4,000개 이상의 공항 관측 자료 및 예보 (METAR 및 TAF 보고).

지도상에서 검색 가능한 기상관측소가 노란 점과 빨간 점으로 표시되어 있습니다.

기상관측소 명을 보려면 표시 위로 마우스를 이동하세요.

날씨 관측과 예보를 보려면 클릭하세요.

지도 변경 : 확대하려면 엑스 표시가 있는 녹색 버튼, 축소하려면 빼기 표시가 있는 녹색 버튼, 다음 페이지의 지도를 보려면 녹색 화살표를 클릭하세요.


METAR-TAF: